Time;durP1;ratioP1;P1;durP2;ratioP2;P2;SDS_P1;SDS_P2;PMS_P1;PMS_P2;Temp;Humidity;BMP_temperature;BMP_pressure;BME280_temperature;BME280_humidity;BME280_pressure;Samples;Min_cycle;Max_cycle;Signal;HPM_P1;HPM_P2
2023/01/14 00:01:30;;;;;;;5.30;1.88;;;28.60;99.90;;;;;;5009012;28;20476;-59
2023/01/14 00:03:57;;;;;;;4.32;1.45;;;28.80;99.90;;;;;;5013883;28;20498;-57
2023/01/14 00:06:26;;;;;;;7.63;2.00;;;28.60;99.90;;;;;;5014321;28;20031;-59
2023/01/14 00:08:58;;;;;;;5.93;1.80;;;28.50;99.90;;;;;;5009724;28;20022;-56
2023/01/14 00:14:22;;;;;;;4.95;1.50;;;28.60;99.90;;;;;;5009893;28;20566;-59
2023/01/14 00:16:51;;;;;;;6.63;1.80;;;28.60;99.90;;;;;;5012187;28;20026;-59
2023/01/14 00:19:19;;;;;;;5.45;1.90;;;28.50;99.90;;;;;;5019273;28;20091;-63
2023/01/14 00:21:46;;;;;;;9.52;6.22;;;28.50;99.90;;;;;;4670208;28;9999973;-59
2023/01/14 00:24:14;;;;;;;6.95;2.47;;;28.50;99.90;;;;;;5006313;28;20029;-59
2023/01/14 00:26:42;;;;;;;9.70;7.35;;;28.90;99.90;;;;;;5011436;28;20032;-59
2023/01/14 00:29:16;;;;;;;4.55;2.00;;;29.30;99.90;;;;;;5005921;28;20026;-59
2023/01/14 00:31:44;;;;;;;5.03;1.50;;;29.60;99.90;;;;;;5011384;28;20049;-57
2023/01/14 00:34:12;;;;;;;3.88;1.55;;;29.80;99.90;;;;;;5005985;28;20528;-56
2023/01/14 00:36:39;;;;;;;4.30;1.65;;;30.10;99.50;;;;;;5011345;28;20885;-58
2023/01/14 00:39:06;;;;;;;4.95;2.20;;;30.10;99.90;;;;;;5005418;28;20022;-59
2023/01/14 00:41:33;;;;;;;5.70;1.58;;;30.00;99.20;;;;;;5005495;28;20018;-58
2023/01/14 00:44:00;;;;;;;3.05;1.20;;;29.80;99.10;;;;;;5003458;28;20483;-56
2023/01/14 00:46:38;;;;;;;3.60;1.52;;;29.60;99.30;;;;;;5004282;28;20489;-56
2023/01/14 00:49:08;;;;;;;4.13;1.38;;;29.40;99.90;;;;;;5011350;28;20076;-59
2023/01/14 00:51:35;;;;;;;4.40;1.30;;;29.30;99.90;;;;;;5005182;28;20410;-64
2023/01/14 00:54:03;;;;;;;6.10;1.73;;;29.30;99.90;;;;;;5005994;28;20020;-64
2023/01/14 00:56:30;;;;;;;4.25;1.77;;;29.20;99.90;;;;;;5004607;28;20033;-57
2023/01/14 00:58:58;;;;;;;4.50;1.58;;;29.20;99.90;;;;;;5014155;28;20396;-62
2023/01/14 01:01:25;;;;;;;6.38;1.85;;;29.30;99.90;;;;;;5006667;28;20075;-59
2023/01/14 01:03:55;;;;;;;4.25;1.40;;;29.20;99.70;;;;;;5005465;28;20646;-59
2023/01/14 01:06:24;;;;;;;4.88;1.67;;;29.10;99.70;;;;;;5005304;28;20053;-68
2023/01/14 01:08:56;;;;;;;6.40;1.70;;;28.90;99.10;;;;;;5038180;28;20025;-59
2023/01/14 01:11:23;;;;;;;4.25;1.70;;;28.80;98.80;;;;;;4663217;28;9999645;-67
2023/01/14 01:13:50;;;;;;;4.13;1.83;;;28.70;98.70;;;;;;5011676;28;20041;-59
2023/01/14 01:16:23;;;;;;;3.90;1.55;;;29.00;98.20;;;;;;5003223;28;20022;-65
2023/01/14 01:18:52;;;;;;;4.55;1.70;;;29.20;97.30;;;;;;5012091;28;20096;-60
2023/01/14 01:21:20;;;;;;;3.03;1.45;;;29.40;97.50;;;;;;5007109;28;20034;-61
2023/01/14 01:23:48;;;;;;;2.58;1.40;;;29.30;96.70;;;;;;5000491;28;20030;-60
2023/01/14 01:26:24;;;;;;;3.17;1.50;;;29.30;97.00;;;;;;5018330;28;20087;-60
2023/01/14 01:28:53;;;;;;;1.63;1.10;;;29.20;96.90;;;;;;5009800;28;20431;-66
2023/01/14 01:31:21;;;;;;;1.20;1.08;;;29.00;96.30;;;;;;4686879;23;10002039;-59
2023/01/14 01:33:48;;;;;;;2.55;1.42;;;28.90;96.00;;;;;;4995225;28;20070;-59
2023/01/14 01:36:27;;;;;;;2.65;2.28;;;28.90;96.40;;;;;;4988309;28;20034;-59
2023/01/14 01:38:54;;;;;;;2.83;1.30;;;28.90;95.60;;;;;;4991964;28;20030;-68
2023/01/14 01:41:24;;;;;;;2.80;2.13;;;28.90;95.60;;;;;;4992700;28;20442;-59
2023/01/14 01:44:02;;;;;;;3.45;1.70;;;28.50;96.50;;;;;;4982726;28;20018;-68
2023/01/14 01:46:31;;;;;;;3.67;1.73;;;28.20;97.30;;;;;;4994898;28;20105;-60
2023/01/14 01:49:11;;;;;;;3.30;1.52;;;28.20;97.50;;;;;;4993427;28;20022;-67
2023/01/14 01:51:55;;;;;;;2.65;1.30;;;28.30;97.30;;;;;;4992299;28;20277;-60
2023/01/14 01:54:29;;;;;;;3.03;1.33;;;28.40;98.30;;;;;;4988952;28;20019;-68
2023/01/14 01:56:57;;;;;;;1.75;1.10;;;28.30;99.20;;;;;;4996803;28;20036;-61
2023/01/14 01:59:27;;;;;;;3.78;1.58;;;28.20;99.30;;;;;;4990679;28;20125;-68
2023/01/14 02:01:56;;;;;;;3.72;1.70;;;28.30;99.50;;;;;;4992850;28;20477;-60
2023/01/14 02:04:23;;;;;;;4.97;1.98;;;28.50;99.60;;;;;;4996881;28;20100;-59
2023/01/14 02:06:50;;;;;;;4.80;1.83;;;28.60;99.00;;;;;;4989151;28;20338;-61
2023/01/14 02:09:18;;;;;;;3.00;1.63;;;28.80;98.90;;;;;;4991994;28;20070;-59
2023/01/14 02:12:10;;;;;;;4.53;2.08;;;28.90;98.70;;;;;;4991243;28;20543;-60
2023/01/14 02:14:43;;;;;;;2.83;1.77;;;28.80;98.60;;;;;;5001972;28;20030;-68
2023/01/14 02:17:45;;;;;;;9.02;6.82;;;28.60;99.10;;;;;;4995163;28;20022;-69
2023/01/14 02:20:33;;;;;;;6.03;2.75;;;28.70;98.60;;;;;;4993024;28;20037;-67
2023/01/14 02:23:44;;;;;;;5.63;2.38;;;28.60;99.40;;;;;;4998530;28;20022;-60
2023/01/14 02:26:51;;;;;;;5.45;2.10;;;28.70;99.00;;;;;;4997904;28;20019;-60
2023/01/14 02:29:36;;;;;;;4.43;1.77;;;29.00;98.30;;;;;;4991065;28;20533;-68
2023/01/14 02:32:58;;;;;;;4.05;1.50;;;29.00;97.80;;;;;;4989718;28;20372;-67
2023/01/14 02:35:40;;;;;;;2.92;1.92;;;29.10;98.00;;;;;;4929087;29;20059;-60
2023/01/14 02:38:28;;;;;;;3.17;1.25;;;29.20;98.10;;;;;;4930882;29;20526;-60
2023/01/14 02:44:30;;;;;;;2.85;1.58;;;29.80;97.30;;;;;;4904423;29;20042;-59
2023/01/14 02:47:20;;;;;;;2.30;1.30;;;29.80;97.30;;;;;;4913090;29;20032;-69
2023/01/14 02:49:51;;;;;;;2.20;1.30;;;29.80;97.20;;;;;;4906818;29;20066;-61
2023/01/14 02:52:19;;;;;;;3.83;1.45;;;29.80;97.40;;;;;;4906713;29;20185;-68
2023/01/14 02:55:01;;;;;;;3.47;1.73;;;29.90;97.50;;;;;;4909722;29;20056;-68
2023/01/14 02:58:19;;;;;;;6.20;1.53;;;30.50;96.70;;;;;;4905899;29;20040;-60
2023/01/14 03:00:58;;;;;;;5.32;1.98;;;30.10;96.60;;;;;;4887163;29;20115;-59
2023/01/14 03:03:53;;;;;;;4.20;1.70;;;30.70;96.00;;;;;;4886412;29;20051;-59
2023/01/14 03:06:29;;;;;;;3.58;1.60;;;30.70;96.70;;;;;;4886479;29;20098;-59
2023/01/14 03:09:17;;;;;;;2.88;1.80;;;31.40;96.60;;;;;;4886431;29;20047;-59
2023/01/14 03:12:11;;;;;;;2.85;1.50;;;32.10;96.60;;;;;;4900692;29;20050;-68
2023/01/14 03:15:16;;;;;;;4.53;1.70;;;33.40;94.80;;;;;;4906156;29;20036;-59
2023/01/14 03:18:08;;;;;;;2.72;1.60;;;33.80;94.90;;;;;;4846005;29;20038;-67
2023/01/14 03:20:39;;;;;;;4.45;2.00;;;33.10;94.50;;;;;;4869662;29;20079;-68
2023/01/14 03:23:09;;;;;;;3.53;1.80;;;32.70;93.50;;;;;;4879889;29;20070;-59
2023/01/14 03:25:42;;;;;;;2.70;1.50;;;32.50;94.40;;;;;;4879320;29;20417;-59
2023/01/14 03:28:12;;;;;;;3.08;1.50;;;32.40;95.20;;;;;;4866731;29;20118;-68
2023/01/14 03:30:43;;;;;;;1.92;1.40;;;32.20;95.30;;;;;;4881050;29;20060;-70
2023/01/14 03:33:20;;;;;;;4.28;1.80;;;31.80;95.50;;;;;;4877158;29;20037;-61
2023/01/14 03:35:48;;;;;;;3.90;1.40;;;31.80;95.00;;;;;;4898868;28;20042;-60
2023/01/14 03:38:33;;;;;;;5.45;1.83;;;31.30;95.10;;;;;;4940107;28;20223;-69
2023/01/14 03:41:03;;;;;;;2.80;1.83;;;31.20;95.30;;;;;;4933388;28;20130;-68
2023/01/14 03:43:55;;;;;;;5.30;2.97;;;31.00;96.20;;;;;;4937925;28;20065;-68
2023/01/14 03:46:22;;;;;;;3.97;2.03;;;31.20;95.90;;;;;;4938283;28;20141;-60
2023/01/14 03:48:49;;;;;;;2.67;1.48;;;31.10;95.80;;;;;;4937920;28;20512;-63
2023/01/14 03:51:59;;;;;;;3.75;1.67;;;31.70;94.80;;;;;;4940557;28;20039;-69
2023/01/14 03:54:55;;;;;;;3.65;1.33;;;31.90;94.20;;;;;;4971481;28;20126;-61
2023/01/14 03:57:58;;;;;;;2.70;1.60;;;31.70;95.40;;;;;;4930850;29;20105;-61
2023/01/14 04:00:37;;;;;;;2.88;1.50;;;32.80;94.10;;;;;;4920040;29;20646;-68
2023/01/14 04:03:09;;;;;;;4.43;1.40;;;32.90;94.70;;;;;;4924391;29;20039;-59
2023/01/14 04:05:37;;;;;;;4.38;2.22;;;33.50;93.40;;;;;;4926242;29;20066;-67
2023/01/14 04:08:05;;;;;;;5.55;2.20;;;34.30;92.90;;;;;;4923548;29;20127;-65
2023/01/14 04:10:33;;;;;;;3.08;1.38;;;34.70;93.20;;;;;;4923455;29;20070;-66
2023/01/14 04:15:45;;;;;;;2.92;1.20;;;35.10;91.20;;;;;;4925080;29;20451;-58
2023/01/14 04:18:12;;;;;;;2.20;1.15;;;35.00;91.80;;;;;;4923818;29;20483;-66
2023/01/14 04:20:39;;;;;;;3.47;1.27;;;35.30;91.90;;;;;;4923854;29;20047;-58
2023/01/14 04:23:06;;;;;;;2.50;1.20;;;35.70;90.20;;;;;;4924328;29;20148;-58
2023/01/14 04:25:33;;;;;;;4.45;1.38;;;34.70;91.40;;;;;;4924891;29;20554;-58
2023/01/14 04:27:59;;;;;;;3.70;1.48;;;34.40;91.50;;;;;;4923810;29;20040;-60
2023/01/14 04:30:27;;;;;;;4.05;1.67;;;33.80;91.70;;;;;;4923604;29;20090;-60
2023/01/14 04:32:54;;;;;;;5.15;1.80;;;33.60;91.50;;;;;;4925355;29;20042;-68
2023/01/14 04:35:21;;;;;;;5.55;1.10;;;33.20;92.60;;;;;;4642229;28;10000265;-60
2023/01/14 04:37:47;;;;;;;2.58;1.15;;;33.00;92.70;;;;;;4988311;28;20125;-65
2023/01/14 04:40:14;;;;;;;5.63;1.30;;;32.80;92.30;;;;;;4993682;28;20038;-60
2023/01/14 04:42:41;;;;;;;2.28;1.05;;;32.60;93.00;;;;;;4989753;28;20476;-65
2023/01/14 04:45:09;;;;;;;3.38;1.50;;;33.00;92.70;;;;;;4988527;28;20030;-65
2023/01/14 04:47:38;;;;;;;4.10;1.20;;;34.00;91.50;;;;;;5011036;28;20671;-67
2023/01/14 04:52:51;;;;;;;2.08;1.15;;;34.90;91.60;;;;;;4986573;28;20077;-59
2023/01/14 04:55:19;;;;;;;4.65;1.33;;;34.50;91.10;;;;;;4994048;28;20025;-67
2023/01/14 04:57:46;;;;;;;2.63;1.20;;;33.10;92.50;;;;;;4987282;28;20515;-67
2023/01/14 05:00:13;;;;;;;4.13;1.48;;;32.10;92.80;;;;;;4997602;28;20145;-64
2023/01/14 05:02:45;;;;;;;3.22;1.42;;;31.50;93.60;;;;;;4996645;28;20053;-68
2023/01/14 05:05:12;;;;;;;4.22;1.50;;;31.40;93.40;;;;;;4992028;28;20295;-64
2023/01/14 05:07:38;;;;;;;3.65;1.10;;;31.90;93.80;;;;;;4988847;28;20021;-59
2023/01/14 05:10:06;;;;;;;3.28;1.25;;;32.60;93.50;;;;;;4985624;28;20030;-60
2023/01/14 05:12:33;;;;;;;2.22;1.25;;;32.70;92.70;;;;;;4983327;28;20510;-60
2023/01/14 05:15:00;;;;;;;3.88;1.35;;;32.20;92.60;;;;;;4991949;28;20036;-65
2023/01/14 05:17:27;;;;;;;3.03;1.25;;;31.50;93.00;;;;;;4990319;28;20555;-58
2023/01/14 05:19:53;;;;;;;3.72;1.90;;;31.50;93.70;;;;;;4991045;28;20122;-58
2023/01/14 05:22:20;;;;;;;3.70;1.65;;;31.20;93.90;;;;;;4983583;28;20418;-64
2023/01/14 05:24:47;;;;;;;3.35;1.33;;;31.00;93.50;;;;;;4989377;28;20022;-63
2023/01/14 05:27:14;;;;;;;5.95;2.13;;;31.00;94.30;;;;;;4987532;28;20161;-58
2023/01/14 05:29:41;;;;;;;6.20;1.63;;;31.40;93.50;;;;;;4981808;28;20153;-64
2023/01/14 05:32:12;;;;;;;3.65;1.42;;;31.40;93.20;;;;;;4990709;28;20488;-59
2023/01/14 05:34:38;;;;;;;4.03;1.45;;;31.40;93.80;;;;;;4993136;28;20061;-67
2023/01/14 05:37:06;;;;;;;2.92;1.33;;;31.60;93.70;;;;;;4990504;28;20236;-64
2023/01/14 05:39:33;;;;;;;4.63;1.95;;;31.90;92.90;;;;;;4984766;28;20049;-64
2023/01/14 05:47:30;;;;;;;2.83;1.48;;;32.00;92.60;;;;;;4983489;28;20073;-60
2023/01/14 05:49:57;;;;;;;4.10;1.40;;;32.10;92.80;;;;;;4983257;28;20060;-68
2023/01/14 05:52:24;;;;;;;4.25;1.77;;;31.80;93.00;;;;;;4993207;28;20026;-65
2023/01/14 05:54:51;;;;;;;2.83;1.55;;;31.20;93.50;;;;;;4984638;28;20481;-59
2023/01/14 05:57:17;;;;;;;2.40;1.38;;;30.60;93.80;;;;;;4982259;28;20027;-59
2023/01/14 05:59:44;;;;;;;6.75;2.03;;;30.30;94.60;;;;;;4984305;28;20503;-60
2023/01/14 06:07:52;;;;;;;3.85;1.80;;;31.00;94.30;;;;;;4959440;28;20526;-65
2023/01/14 06:10:24;;;;;;;3.67;1.33;;;30.90;94.00;;;;;;4965438;28;20545;-66
2023/01/14 06:12:58;;;;;;;5.45;1.55;;;30.60;94.70;;;;;;4959774;28;20039;-64
2023/01/14 06:15:29;;;;;;;4.43;1.58;;;30.70;94.50;;;;;;4961260;28;20524;-60
2023/01/14 06:18:08;;;;;;;2.92;1.27;;;30.60;94.40;;;;;;4964543;28;20039;-59
2023/01/14 06:20:38;;;;;;;3.88;1.45;;;31.20;93.50;;;;;;4963397;28;20055;-60
2023/01/14 06:23:05;;;;;;;5.03;1.50;;;30.90;93.80;;;;;;4973436;28;20181;-60
2023/01/14 06:25:33;;;;;;;2.47;1.40;;;31.20;93.40;;;;;;4961592;28;20670;-67
2023/01/14 06:28:01;;;;;;;5.35;1.58;;;30.80;93.40;;;;;;4963365;28;20026;-59
2023/01/14 06:30:29;;;;;;;3.10;1.42;;;30.60;93.70;;;;;;4958685;28;20065;-65
2023/01/14 06:32:56;;;;;;;3.63;1.30;;;31.00;94.20;;;;;;4963071;28;20294;-63
2023/01/14 06:35:23;;;;;;;5.53;2.20;;;31.50;93.10;;;;;;4959246;28;20034;-62
2023/01/14 06:37:50;;;;;;;4.00;1.90;;;32.70;92.30;;;;;;4965528;28;20405;-65
2023/01/14 06:40:19;;;;;;;5.78;1.95;;;32.80;92.10;;;;;;4963309;28;20085;-64
2023/01/14 06:42:46;;;;;;;5.05;1.98;;;32.40;92.50;;;;;;4974204;28;20054;-64
2023/01/14 06:45:13;;;;;;;2.58;1.30;;;32.10;92.80;;;;;;4981840;28;20540;-59
2023/01/14 06:47:40;;;;;;;3.05;1.58;;;33.10;92.30;;;;;;4997056;28;20061;-58
2023/01/14 06:50:08;;;;;;;3.30;1.35;;;34.30;91.20;;;;;;4992003;28;21146;-59
2023/01/14 06:52:35;;;;;;;5.40;0.95;;;35.50;90.70;;;;;;4992275;28;20076;-66
2023/01/14 06:55:02;;;;;;;3.70;1.20;;;36.10;88.90;;;;;;4985372;28;20366;-66
2023/01/14 06:57:29;;;;;;;4.53;1.33;;;35.00;90.20;;;;;;4985793;28;20030;-59
2023/01/14 06:59:56;;;;;;;3.67;1.40;;;34.20;90.50;;;;;;4986818;28;20045;-65
2023/01/14 07:02:23;;;;;;;5.15;2.17;;;33.90;90.80;;;;;;4993635;28;20045;-59
2023/01/14 07:04:50;;;;;;;4.63;2.97;;;33.10;91.00;;;;;;4995238;28;20028;-59
2023/01/14 07:07:18;;;;;;;4.00;2.15;;;31.90;92.00;;;;;;4993296;28;20038;-59
2023/01/14 07:09:45;;;;;;;4.25;3.58;;;31.10;92.80;;;;;;4994861;28;20412;-59
2023/01/14 07:12:12;;;;;;;5.00;2.17;;;30.60;93.50;;;;;;4993847;28;20037;-59
2023/01/14 07:14:39;;;;;;;3.38;1.90;;;30.00;93.90;;;;;;4991314;28;20129;-59
2023/01/14 07:17:06;;;;;;;5.80;2.17;;;29.80;94.30;;;;;;4994156;28;20235;-63
2023/01/14 07:19:33;;;;;;;3.28;1.35;;;29.50;94.40;;;;;;4993716;28;20548;-65
2023/01/14 07:22:00;;;;;;;3.95;1.77;;;29.40;94.70;;;;;;4992559;28;20033;-67
2023/01/14 07:24:26;;;;;;;4.75;2.60;;;29.10;95.10;;;;;;4994423;28;20085;-57
2023/01/14 07:26:53;;;;;;;4.03;2.28;;;29.10;95.20;;;;;;4994447;28;20026;-59
2023/01/14 07:29:20;;;;;;;6.68;2.28;;;28.70;95.50;;;;;;4993289;28;20507;-66
2023/01/14 07:31:47;;;;;;;5.70;2.50;;;28.50;96.10;;;;;;4995052;28;20021;-64
2023/01/14 07:34:14;;;;;;;4.10;1.75;;;28.30;96.50;;;;;;4994231;28;20022;-60
2023/01/14 07:36:41;;;;;;;4.05;1.50;;;28.10;96.60;;;;;;4991746;28;20028;-62
2023/01/14 07:39:09;;;;;;;6.40;4.03;;;27.90;97.30;;;;;;4991052;28;20030;-57
2023/01/14 07:41:36;;;;;;;8.57;4.55;;;27.70;97.50;;;;;;4993864;28;20591;-66
2023/01/14 07:44:04;;;;;;;4.90;3.20;;;27.70;98.20;;;;;;4990250;28;20010;-59
2023/01/14 07:46:32;;;;;;;3.88;2.45;;;27.70;97.70;;;;;;4996358;28;20064;-66
2023/01/14 07:48:59;;;;;;;4.95;1.77;;;28.70;97.20;;;;;;4991828;28;20072;-66
2023/01/14 07:51:29;;;;;;;5.00;1.88;;;29.60;96.30;;;;;;4985285;28;20026;-63
2023/01/14 07:53:56;;;;;;;8.45;3.90;;;30.70;94.90;;;;;;4977862;28;20113;-59
2023/01/14 07:56:22;;;;;;;5.00;1.75;;;31.60;93.80;;;;;;4978245;28;20026;-58
2023/01/14 07:58:49;;;;;;;4.00;1.23;;;30.60;94.00;;;;;;4974470;28;20193;-59
2023/01/14 08:01:16;;;;;;;2.70;1.05;;;30.80;93.70;;;;;;4981621;28;20493;-65
2023/01/14 08:03:43;;;;;;;3.42;0.90;;;31.30;93.30;;;;;;4985405;28;20126;-59
2023/01/14 08:06:10;;;;;;;3.05;1.23;;;31.70;93.10;;;;;;4990223;28;20270;-59
2023/01/14 08:08:37;;;;;;;3.42;1.10;;;31.90;92.70;;;;;;4986103;28;20027;-64
2023/01/14 08:11:04;;;;;;;3.17;1.38;;;32.60;91.70;;;;;;4986650;28;20026;-64
2023/01/14 08:13:31;;;;;;;3.80;1.30;;;32.70;91.50;;;;;;4978922;28;20026;-66
2023/01/14 08:16:00;;;;;;;2.40;1.08;;;32.40;91.50;;;;;;4979938;28;20050;-68
2023/01/14 08:18:29;;;;;;;3.35;0.80;;;31.80;92.00;;;;;;4981951;28;20037;-60
2023/01/14 08:20:57;;;;;;;2.47;1.20;;;30.90;92.80;;;;;;4983790;28;20113;-67
2023/01/14 08:23:24;;;;;;;2.90;1.00;;;29.80;94.00;;;;;;4984476;28;20489;-66
2023/01/14 08:25:51;;;;;;;4.50;1.30;;;28.90;94.90;;;;;;4985054;28;20644;-67
2023/01/14 08:28:19;;;;;;;4.88;1.35;;;28.20;95.80;;;;;;4985072;28;20129;-67
2023/01/14 08:30:45;;;;;;;3.40;0.90;;;27.60;96.80;;;;;;4984674;28;20132;-61
2023/01/14 08:33:12;;;;;;;3.35;1.00;;;27.20;97.50;;;;;;4984492;28;20084;-59
2023/01/14 08:35:40;;;;;;;3.42;0.98;;;26.50;98.40;;;;;;4985103;28;20793;-60
2023/01/14 08:38:08;;;;;;;3.08;1.15;;;26.10;98.90;;;;;;4984382;28;20030;-67
2023/01/14 08:40:35;;;;;;;3.22;0.90;;;26.00;99.10;;;;;;4995976;28;20034;-64
2023/01/14 08:43:01;;;;;;;3.40;1.25;;;25.70;99.70;;;;;;4981121;28;20395;-59
2023/01/14 08:45:29;;;;;;;2.85;1.33;;;25.50;99.90;;;;;;4979540;28;20023;-67
2023/01/14 08:47:57;;;;;;;3.78;1.25;;;25.30;99.90;;;;;;4986580;28;20062;-67
2023/01/14 08:50:23;;;;;;;2.47;0.82;;;25.10;99.90;;;;;;4982914;28;20026;-67
2023/01/14 08:52:50;;;;;;;3.80;1.10;;;24.80;99.90;;;;;;4983508;28;20133;-59
2023/01/14 08:55:17;;;;;;;4.00;1.00;;;24.80;99.90;;;;;;4982758;28;20731;-60
2023/01/14 08:57:44;;;;;;;4.95;1.30;;;24.60;99.90;;;;;;4980408;28;20030;-67
2023/01/14 09:00:12;;;;;;;2.72;0.80;;;24.40;99.90;;;;;;4979337;28;20120;-62
2023/01/14 09:02:39;;;;;;;4.65;1.20;;;24.30;99.90;;;;;;4981994;28;20116;-70
2023/01/14 09:05:06;;;;;;;7.60;1.77;;;24.30;99.90;;;;;;4980771;28;20022;-61
2023/01/14 09:18:35;;;;;;;3.42;0.98;;;24.10;99.90;;;;;;4983915;28;20072;-68
2023/01/14 09:21:03;;;;;;;2.08;0.98;;;24.10;99.90;;;;;;4988105;28;20586;-68
2023/01/14 09:23:29;;;;;;;3.42;1.55;;;24.20;99.90;;;;;;4981023;28;20533;-66
2023/01/14 09:25:56;;;;;;;4.50;1.55;;;24.20;99.90;;;;;;4981203;28;20413;-62
2023/01/14 09:28:23;;;;;;;3.35;1.17;;;24.10;99.90;;;;;;4979367;28;20023;-61
2023/01/14 09:30:50;;;;;;;4.05;1.60;;;24.00;99.90;;;;;;4980778;28;20378;-61
2023/01/14 09:33:17;;;;;;;3.83;1.08;;;24.00;99.90;;;;;;4979304;28;20089;-60
2023/01/14 09:35:44;;;;;;;4.15;1.38;;;24.00;99.90;;;;;;4980275;28;20029;-60
2023/01/14 09:38:11;;;;;;;1.98;0.77;;;24.00;99.90;;;;;;4980512;28;20062;-69
2023/01/14 09:40:39;;;;;;;7.35;1.65;;;23.90;99.90;;;;;;4986425;28;20323;-62
2023/01/14 09:43:17;;;;;;;4.35;1.50;;;24.00;99.90;;;;;;4978292;28;20136;-62
2023/01/14 09:45:47;;;;;;;5.85;0.93;;;24.00;99.90;;;;;;4980010;28;20022;-63
2023/01/14 09:48:17;;;;;;;4.90;2.05;;;24.00;99.90;;;;;;4981559;28;20462;-68
2023/01/14 09:50:54;;;;;;;12.77;5.07;;;24.10;99.90;;;;;;4976656;28;20026;-69
2023/01/14 09:53:51;;;;;;;4.10;1.75;;;24.00;99.90;;;;;;4980407;28;20030;-68
2023/01/14 09:56:28;;;;;;;4.93;1.90;;;24.10;99.90;;;;;;4975027;28;20058;-67
2023/01/14 09:59:00;;;;;;;34.83;10.18;;;23.90;99.90;;;;;;4977942;28;20061;-63
2023/01/14 10:01:27;;;;;;;12.45;3.38;;;23.90;99.90;;;;;;4981794;28;20398;-69
2023/01/14 10:04:44;;;;;;;19.05;6.65;;;23.90;99.90;;;;;;4981094;28;20453;-68
2023/01/14 10:07:14;;;;;;;37.65;9.43;;;23.90;99.90;;;;;;4919614;29;20509;-67
2023/01/14 10:09:56;;;;;;;8.80;2.55;;;23.90;99.90;;;;;;4918739;29;20040;-63
2023/01/14 10:12:42;;;;;;;12.50;3.10;;;23.80;99.90;;;;;;4921828;29;20099;-65
2023/01/14 10:15:37;;;;;;;6.82;2.78;;;23.80;99.90;;;;;;4916620;29;20035;-64
2023/01/14 10:18:10;;;;;;;8.45;2.75;;;23.70;99.90;;;;;;4860568;29;20045;-70
2023/01/14 10:20:54;;;;;;;;;;;23.70;99.90;;;;;;4863478;29;20156;-66
2023/01/14 10:23:30;;;;;;;5.32;2.45;;;23.70;99.90;;;;;;4867355;29;20409;-69
2023/01/14 10:25:57;;;;;;;6.75;2.20;;;23.60;99.90;;;;;;4867597;29;20038;-67
2023/01/14 10:28:29;;;;;;;8.13;2.80;;;23.50;99.90;;;;;;4866889;29;20071;-69
2023/01/14 10:30:59;;;;;;;3.63;1.77;;;23.40;99.90;;;;;;4867453;29;20045;-69
2023/01/14 10:33:26;;;;;;;4.90;1.63;;;23.40;99.90;;;;;;4867071;29;20081;-63
2023/01/14 10:36:03;;;;;;;6.53;2.60;;;23.20;99.90;;;;;;4866994;29;20044;-64
2023/01/14 10:38:31;;;;;;;7.38;1.77;;;23.10;99.90;;;;;;4866728;29;20571;-65
2023/01/14 10:41:05;;;;;;;4.15;1.50;;;23.00;99.90;;;;;;4866128;29;20045;-64
2023/01/14 10:43:37;;;;;;;5.75;1.90;;;23.00;99.90;;;;;;4906599;29;20059;-65
2023/01/14 10:46:05;;;;;;;3.90;1.65;;;22.90;99.90;;;;;;4924383;29;20027;-69
2023/01/14 10:48:50;;;;;;;4.55;1.40;;;22.90;99.90;;;;;;4923086;29;20039;-65
2023/01/14 10:51:37;;;;;;;4.60;1.60;;;22.90;99.90;;;;;;4923034;29;20075;-67
2023/01/14 10:54:14;;;;;;;3.45;1.30;;;22.80;99.90;;;;;;4932743;28;20452;-71
2023/01/14 10:56:53;;;;;;;6.88;2.85;;;22.80;99.90;;;;;;4983759;28;20034;-63
2023/01/14 10:59:50;;;;;;;7.32;4.95;;;22.80;99.90;;;;;;4983592;28;20030;-68
2023/01/14 11:02:20;;;;;;;7.13;3.58;;;22.90;99.90;;;;;;4982497;28;20030;-65
2023/01/14 11:04:48;;;;;;;5.85;2.67;;;22.90;99.90;;;;;;4983671;28;20096;-65
2023/01/14 11:07:28;;;;;;;7.90;2.65;;;23.00;99.90;;;;;;4986201;28;20034;-68
2023/01/14 11:09:58;;;;;;;4.13;1.35;;;23.20;99.90;;;;;;4983893;28;20516;-68
2023/01/14 11:12:31;;;;;;;3.83;1.60;;;23.10;99.90;;;;;;4983344;28;20037;-65
2023/01/14 11:14:58;;;;;;;6.05;1.88;;;22.80;99.90;;;;;;4999262;28;20030;-64
2023/01/14 11:17:28;;;;;;;5.28;1.35;;;22.80;99.90;;;;;;4981715;28;20034;-67
2023/01/14 11:20:23;;;;;;;4.25;1.30;;;22.90;99.90;;;;;;4984196;28;20794;-65
2023/01/14 11:23:03;;;;;;;5.93;1.60;;;22.90;99.90;;;;;;4978393;28;20369;-64
2023/01/14 11:25:30;;;;;;;2.70;0.90;;;22.90;99.90;;;;;;4983243;28;20033;-64
2023/01/14 11:27:59;;;;;;;2.83;1.42;;;22.70;99.90;;;;;;4983565;28;20077;-64
2023/01/14 11:30:26;;;;;;;3.30;1.00;;;22.70;99.90;;;;;;4983285;28;20116;-66
2023/01/14 11:32:55;;;;;;;3.42;1.23;;;22.70;99.90;;;;;;4982877;28;20034;-66
2023/01/14 11:35:35;;;;;;;5.60;1.38;;;22.50;99.90;;;;;;4981795;28;20026;-65
2023/01/14 11:38:05;;;;;;;4.07;1.00;;;22.40;99.90;;;;;;4980546;28;20026;-65
2023/01/14 11:43:25;;;;;;;4.97;1.48;;;22.40;99.90;;;;;;4976251;28;20037;-63
2023/01/14 11:46:06;;;;;;;4.38;1.30;;;22.50;99.90;;;;;;4975812;28;20446;-65
2023/01/14 11:48:33;;;;;;;3.67;1.13;;;22.40;99.90;;;;;;4981885;28;20037;-66
2023/01/14 11:51:04;;;;;;;4.40;1.00;;;22.40;99.90;;;;;;4978806;28;20038;-64
2023/01/14 11:53:48;;;;;;;5.30;1.33;;;22.30;99.90;;;;;;4981774;28;20109;-63
2023/01/14 11:56:21;;;;;;;2.45;1.05;;;22.20;99.90;;;;;;4983180;28;20045;-66
2023/01/14 11:58:48;;;;;;;3.60;1.35;;;22.20;99.90;;;;;;4986617;28;20423;-66
2023/01/14 12:01:30;;;;;;;3.53;1.13;;;22.10;99.90;;;;;;4982461;28;20489;-67
2023/01/14 12:04:00;;;;;;;3.72;1.40;;;22.00;99.90;;;;;;4983508;28;20509;-60
2023/01/14 12:06:43;;;;;;;3.80;0.98;;;22.30;99.90;;;;;;4983493;28;20066;-65
2023/01/14 12:09:20;;;;;;;2.75;0.98;;;22.50;99.90;;;;;;4984403;28;20036;-65
2023/01/14 12:12:00;;;;;;;3.30;1.20;;;22.40;99.90;;;;;;4981449;28;20034;-64
2023/01/14 12:17:30;;;;;;;5.53;1.35;;;22.40;99.90;;;;;;4979933;28;20092;-60
2023/01/14 12:20:03;;;;;;;3.88;1.15;;;22.40;99.90;;;;;;4985414;28;20030;-60
2023/01/14 12:22:43;;;;;;;3.85;1.20;;;22.40;99.90;;;;;;4984210;28;20029;-64
2023/01/14 12:25:27;;;;;;;3.88;1.35;;;22.30;99.90;;;;;;4979007;28;20475;-66
2023/01/14 12:28:14;;;;;;;5.38;1.17;;;22.30;99.90;;;;;;4980558;28;20069;-59
2023/01/14 12:31:01;;;;;;;5.25;1.30;;;22.30;99.90;;;;;;4984124;28;20054;-65
2023/01/14 12:33:45;;;;;;;4.15;1.35;;;22.40;99.90;;;;;;4982643;28;20393;-65
2023/01/14 12:36:17;;;;;;;5.53;1.15;;;22.30;99.90;;;;;;4984870;28;20569;-61
2023/01/14 12:47:46;;;;;;;4.88;1.95;;;22.30;99.90;;;;;;4984030;28;20388;-60
2023/01/14 12:50:15;;;;;;;3.63;1.38;;;22.20;99.90;;;;;;4984120;28;20035;-60
2023/01/14 12:52:53;;;;;;;5.80;1.15;;;22.20;99.90;;;;;;4985328;28;20081;-60
2023/01/14 12:55:32;;;;;;;4.32;1.30;;;22.20;99.90;;;;;;4985961;28;20030;-65
2023/01/14 12:58:02;;;;;;;3.28;1.40;;;22.20;99.90;;;;;;4985562;28;20540;-65
2023/01/14 13:00:32;;;;;;;5.70;1.65;;;22.10;99.90;;;;;;4985848;28;20198;-60
2023/01/14 13:03:08;;;;;;;6.75;1.50;;;22.20;99.90;;;;;;4984823;28;20026;-61
2023/01/14 13:05:41;;;;;;;5.00;1.35;;;22.20;99.90;;;;;;4978740;28;20489;-60
2023/01/14 13:08:33;;;;;;;6.55;1.23;;;22.10;99.90;;;;;;4985526;28;20149;-60
2023/01/14 13:11:19;;;;;;;4.20;1.52;;;22.00;99.90;;;;;;4991898;28;20034;-61
2023/01/14 13:13:58;;;;;;;3.95;1.42;;;22.00;99.90;;;;;;4979979;28;20030;-61
2023/01/14 13:16:36;;;;;;;6.10;1.73;;;22.00;99.90;;;;;;4985885;28;20464;-61
2023/01/14 13:19:06;;;;;;;9.52;1.65;;;21.90;99.90;;;;;;4986595;28;20038;-65
2023/01/14 13:21:56;;;;;;;4.82;1.52;;;21.80;99.90;;;;;;4992247;28;20031;-61
2023/01/14 13:24:47;;;;;;;3.13;1.42;;;21.70;99.90;;;;;;4978080;28;20038;-61
2023/01/14 13:27:43;;;;;;;5.72;1.52;;;21.60;99.90;;;;;;4986037;28;20106;-61
2023/01/14 13:30:18;;;;;;;4.45;1.35;;;21.60;99.90;;;;;;4999511;23;20112;-66
2023/01/14 13:33:01;;;;;;;3.65;1.70;;;21.60;99.90;;;;;;5004270;28;20547;-61
2023/01/14 13:35:30;;;;;;;3.42;1.35;;;21.60;99.90;;;;;;5004751;28;20109;-67
2023/01/14 13:38:00;;;;;;;6.10;1.50;;;21.60;99.90;;;;;;5004025;28;20444;-65
2023/01/14 13:40:34;;;;;;;2.78;1.48;;;21.50;99.90;;;;;;5004398;28;20029;-61
2023/01/14 13:43:25;;;;;;;4.38;1.48;;;21.40;99.90;;;;;;5003628;28;20033;-67
2023/01/14 13:45:57;;;;;;;6.40;1.88;;;21.50;99.90;;;;;;5004748;28;20589;-61
2023/01/14 13:48:45;;;;;;;5.60;1.92;;;21.40;99.90;;;;;;5004330;28;20030;-61
2023/01/14 13:51:38;;;;;;;3.28;1.60;;;21.40;99.90;;;;;;5003258;28;20038;-66
2023/01/14 13:54:11;;;;;;;3.13;1.55;;;21.30;99.90;;;;;;5001242;28;20405;-61
2023/01/14 13:56:53;;;;;;;7.05;2.08;;;21.30;99.90;;;;;;5005294;28;20037;-61
2023/01/14 13:59:27;;;;;;;5.38;1.67;;;21.30;99.90;;;;;;5004581;28;20555;-60
2023/01/14 14:01:54;;;;;;;4.95;1.70;;;21.40;99.90;;;;;;5006976;28;20397;-61
2023/01/14 14:05:06;;;;;;;6.55;1.80;;;21.30;99.90;;;;;;5007037;28;21025;-66